Time;durP1;ratioP1;P1;durP2;ratioP2;P2;SDS_P1;SDS_P2;PMS_P1;PMS_P2;Temp;Humidity;BMP_temperature;BMP_pressure;BME280_temperature;BME280_humidity;BME280_pressure;Samples;Min_cycle;Max_cycle;Signal;HPM_P1;HPM_P2
2023/07/08 00:02:12;;;;;;;10.57;6.17;;;;;;;17.18;100.00;102307.09;4998565;28;20238;-72
2023/07/08 00:04:38;;;;;;;7.97;5.83;;;;;;;17.14;100.00;102311.34;5006285;28;20213;-72
2023/07/08 00:07:04;;;;;;;8.70;5.80;;;;;;;17.08;100.00;102308.66;4996379;28;20199;-71
2023/07/08 00:09:30;;;;;;;7.13;6.17;;;;;;;17.01;100.00;102317.19;5001725;28;20214;-72
2023/07/08 00:11:57;;;;;;;9.27;5.83;;;;;;;16.86;100.00;102322.06;5008426;28;20194;-72
2023/07/08 00:14:23;;;;;;;7.77;5.87;;;;;;;16.93;100.00;102298.06;5003587;28;20211;-72
2023/07/08 00:16:49;;;;;;;7.17;5.37;;;;;;;16.88;100.00;102284.19;5005808;28;20194;-72
2023/07/08 00:19:19;;;;;;;6.23;4.40;;;;;;;16.87;100.00;102281.56;5006656;28;20242;-72
2023/07/08 00:21:45;;;;;;;6.97;4.43;;;;;;;16.84;100.00;102272.03;5014568;28;20208;-72
2023/07/08 00:24:12;;;;;;;8.17;5.13;;;;;;;16.80;100.00;102275.41;5005462;28;20195;-72
2023/07/08 00:26:37;;;;;;;7.87;4.83;;;;;;;16.84;100.00;102253.91;4998746;28;20211;-72
2023/07/08 00:29:08;;;;;;;7.00;4.60;;;;;;;16.84;100.00;102253.03;4995916;28;20214;-73
2023/07/08 00:31:33;;;;;;;5.87;4.53;;;;;;;16.80;100.00;102249.53;5001315;28;20191;-72
2023/07/08 00:33:59;;;;;;;6.47;4.87;;;;;;;16.80;100.00;102244.34;5010139;28;20199;-72
2023/07/08 00:36:27;;;;;;;7.43;4.83;;;;;;;16.79;100.00;102247.78;5004434;28;20233;-72
2023/07/08 00:38:52;;;;;;;6.03;4.73;;;;;;;16.80;100.00;102243.50;5013385;28;20692;-72
2023/07/08 00:41:40;;;;;;;6.60;4.60;;;;;;;16.75;100.00;102234.75;5003434;28;20211;-72
2023/07/08 00:44:10;;;;;;;8.97;5.23;;;;;;;16.77;100.00;102230.50;5002293;28;20326;-71
2023/07/08 00:46:55;;;;;;;8.47;4.83;;;;;;;16.75;100.00;102230.47;5003738;28;20195;-72
2023/07/08 00:49:23;;;;;;;7.03;4.70;;;;;;;16.72;100.00;102229.56;5009187;28;20697;-72
2023/07/08 00:51:49;;;;;;;6.27;4.20;;;;;;;16.72;100.00;102229.56;5007775;28;20587;-72
2023/07/08 00:54:18;;;;;;;8.33;4.33;;;;;;;16.74;100.00;102227.84;5008858;28;21066;-72
2023/07/08 00:57:01;;;;;;;7.37;4.87;;;;;;;16.71;100.00;102223.50;5012185;28;20188;-72
2023/07/08 00:59:31;;;;;;;8.20;4.40;;;;;;;16.69;100.00;102220.03;5003141;28;20238;-72
2023/07/08 01:02:01;;;;;;;5.57;4.80;;;;;;;16.66;100.00;102221.66;5008350;28;20730;-72
2023/07/08 01:04:48;;;;;;;8.17;4.73;;;;;;;16.65;100.00;102214.75;5014312;28;20348;-72
2023/07/08 01:07:21;;;;;;;6.03;4.60;;;;;;;16.59;100.00;102223.31;5005144;28;20186;-72
2023/07/08 01:09:49;;;;;;;6.40;5.23;;;;;;;16.54;100.00;102226.66;5004925;28;20214;-72
2023/07/08 01:12:21;;;;;;;5.53;4.47;;;;;;;16.43;100.00;102226.47;5000410;28;20200;-72
2023/07/08 01:14:48;;;;;;;6.77;4.73;;;;;;;16.44;100.00;102230.78;5005713;28;20556;-72
2023/07/08 01:17:13;;;;;;;5.40;4.70;;;;;;;16.41;100.00;102235.91;5007132;28;20184;-72
2023/07/08 01:19:43;;;;;;;5.20;4.70;;;;;;;16.39;100.00;102232.38;5005404;28;20214;-72
2023/07/08 01:22:10;;;;;;;5.87;4.77;;;;;;;16.27;100.00;102227.00;5006597;28;20230;-72
2023/07/08 01:24:38;;;;;;;6.23;4.93;;;;;;;16.20;100.00;102222.56;5007813;28;20205;-72
2023/07/08 01:27:06;;;;;;;9.97;5.43;;;;;;;16.11;100.00;102213.78;5002980;28;20206;-72
2023/07/08 01:29:32;;;;;;;7.70;4.73;;;;;;;16.03;100.00;102208.44;5001992;28;20239;-72
2023/07/08 01:32:02;;;;;;;5.90;4.90;;;;;;;16.00;100.00;102210.97;5001766;28;20668;-72
2023/07/08 01:34:37;;;;;;;6.87;5.00;;;;;;;15.93;100.00;102198.75;4999471;28;20203;-72
2023/07/08 01:37:04;;;;;;;6.07;5.00;;;;;;;15.89;100.00;102194.38;4998322;28;20234;-72
2023/07/08 01:39:31;;;;;;;6.67;4.90;;;;;;;15.86;100.00;102198.63;5005968;28;20223;-72
2023/07/08 01:41:57;;;;;;;6.43;4.60;;;;;;;15.79;100.00;102189.88;5003113;28;20321;-72
2023/07/08 01:44:31;;;;;;;6.70;4.70;;;;;;;15.76;100.00;102192.41;4986487;28;20657;-72
2023/07/08 01:47:02;;;;;;;11.80;5.57;;;;;;;15.81;100.00;102185.63;5010256;28;20217;-72
2023/07/08 01:49:28;;;;;;;7.10;4.80;;;;;;;15.79;100.00;102176.09;5002781;28;20220;-72
2023/07/08 01:51:54;;;;;;;6.43;5.03;;;;;;;15.80;100.00;102180.44;5014686;28;20199;-72
2023/07/08 01:54:20;;;;;;;8.30;5.37;;;;;;;15.80;100.00;102189.03;4993643;28;20984;-72
2023/07/08 01:56:46;;;;;;;6.60;4.83;;;;;;;15.77;100.00;102191.56;5006397;28;20207;-72
2023/07/08 01:59:11;;;;;;;7.13;4.73;;;;;;;15.82;100.00;102178.72;5007301;28;20242;-72
2023/07/08 02:01:36;;;;;;;7.67;4.90;;;;;;;15.81;100.00;102177.88;4995285;28;20218;-72
2023/07/08 02:04:02;;;;;;;6.27;4.53;;;;;;;15.78;100.00;102176.91;5013031;28;20206;-72
2023/07/08 02:06:28;;;;;;;6.57;5.10;;;;;;;15.71;100.00;102180.25;5003914;28;20203;-72
2023/07/08 02:08:54;;;;;;;8.17;5.20;;;;;;;15.63;100.00;102177.50;5008522;28;20231;-72
2023/07/08 02:11:20;;;;;;;6.93;5.10;;;;;;;15.57;100.00;102179.09;4980480;28;20261;-72
2023/07/08 02:13:47;;;;;;;6.37;4.87;;;;;;;15.52;100.00;102176.41;4997558;28;20206;-72
2023/07/08 02:16:12;;;;;;;8.13;4.53;;;;;;;15.50;100.00;102172.94;5006826;28;20198;-72
2023/07/08 02:18:38;;;;;;;6.03;5.07;;;;;;;15.30;100.00;102174.19;5000780;28;20748;-71
2023/07/08 02:21:03;;;;;;;7.27;4.70;;;;;;;15.35;100.00;102184.63;5006407;28;20219;-72
2023/07/08 02:23:29;;;;;;;7.17;4.87;;;;;;;15.32;100.00;102184.53;5003171;28;20191;-71
2023/07/08 02:25:58;;;;;;;7.77;4.90;;;;;;;15.28;100.00;102181.03;5000602;28;20191;-72
2023/07/08 02:28:24;;;;;;;7.03;5.23;;;;;;;15.20;100.00;102182.56;4995117;28;20215;-72
2023/07/08 02:30:49;;;;;;;4.77;4.37;;;;;;;15.15;100.00;102179.00;5006524;28;20211;-72
2023/07/08 02:33:17;;;;;;;6.80;4.80;;;;;;;15.09;100.00;102183.16;5004703;28;20194;-72
2023/07/08 02:35:43;;;;;;;7.10;4.73;;;;;;;15.05;100.00;102182.22;5010130;28;20287;-72
2023/07/08 02:38:08;;;;;;;5.83;4.67;;;;;;;15.07;100.00;102183.16;5008259;28;20223;-72
2023/07/08 02:40:34;;;;;;;5.53;4.47;;;;;;;14.93;100.00;102186.22;5002718;28;20254;-72
2023/07/08 02:43:00;;;;;;;5.67;4.97;;;;;;;14.98;100.00;102189.78;5004841;28;20199;-72
2023/07/08 02:45:25;;;;;;;7.00;4.70;;;;;;;14.95;100.00;102185.44;5007707;28;20233;-72
2023/07/08 02:47:52;;;;;;;6.73;5.20;;;;;;;14.96;100.00;102186.31;5001431;28;20199;-72
2023/07/08 02:50:18;;;;;;;6.00;5.13;;;;;;;14.80;100.00;102184.19;5004758;28;20202;-71
2023/07/08 02:52:44;;;;;;;6.20;5.53;;;;;;;14.88;100.00;102187.84;5000477;28;20195;-71
2023/07/08 02:55:09;;;;;;;6.00;4.90;;;;;;;14.90;100.00;102186.16;5004662;28;20253;-72
2023/07/08 02:57:35;;;;;;;6.27;5.10;;;;;;;14.85;100.00;102185.16;5001242;28;20731;-72
2023/07/08 03:00:01;;;;;;;7.43;4.93;;;;;;;14.77;100.00;102189.25;5004755;28;20222;-72
2023/07/08 03:02:26;;;;;;;5.93;5.13;;;;;;;14.68;100.00;102189.94;5011655;28;20226;-71
2023/07/08 03:04:54;;;;;;;6.17;5.13;;;;;;;14.70;100.00;102190.84;4989777;28;20197;-72
2023/07/08 03:07:19;;;;;;;5.10;4.63;;;;;;;14.70;100.00;102187.38;5004954;28;20195;-71
2023/07/08 03:09:45;;;;;;;6.00;5.23;;;;;;;14.51;100.00;102174.88;5021126;28;20252;-71
2023/07/08 03:12:11;;;;;;;6.77;4.83;;;;;;;14.56;100.00;102175.88;5001873;28;20191;-72
2023/07/08 03:14:37;;;;;;;6.27;5.33;;;;;;;14.57;100.00;102177.59;5008764;28;20724;-72
2023/07/08 03:17:04;;;;;;;5.87;5.10;;;;;;;14.50;100.00;102173.16;5018218;28;20925;-71
2023/07/08 03:19:29;;;;;;;6.30;5.20;;;;;;;14.50;100.00;102184.31;5008347;28;20218;-71
2023/07/08 03:21:55;;;;;;;7.73;5.33;;;;;;;14.49;100.00;102179.13;5008805;28;21038;-72
2023/07/08 03:24:20;;;;;;;6.57;5.03;;;;;;;14.45;100.00;102183.34;4995896;28;20763;-71
2023/07/08 03:26:47;;;;;;;6.63;5.37;;;;;;;14.46;100.00;102179.91;5005676;28;20270;-72
2023/07/08 03:29:18;;;;;;;6.33;4.73;;;;;;;14.36;100.00;102180.53;5013562;28;20206;-73
2023/07/08 03:31:45;;;;;;;7.87;5.40;;;;;;;14.36;100.00;102179.66;5021239;28;20755;-71
2023/07/08 03:34:12;;;;;;;8.03;5.27;;;;;;;14.42;100.00;102179.81;5009359;28;20191;-72
2023/07/08 03:36:51;;;;;;;5.87;4.93;;;;;;;14.41;100.00;102170.34;5008007;28;20191;-72
2023/07/08 03:39:20;;;;;;;6.17;5.57;;;;;;;14.40;100.00;102168.56;4991769;28;20211;-72
2023/07/08 03:41:45;;;;;;;8.97;5.73;;;;;;;14.41;100.00;102178.06;5003012;28;20247;-72
2023/07/08 03:44:11;;;;;;;7.60;5.80;;;;;;;14.40;100.00;102176.31;5001793;28;20289;-72
2023/07/08 03:46:39;;;;;;;6.00;4.87;;;;;;;14.44;100.00;102171.28;5006746;28;20241;-72
2023/07/08 03:49:06;;;;;;;6.10;5.07;;;;;;;14.47;100.00;102171.38;5006823;28;20210;-72
2023/07/08 03:51:35;;;;;;;6.80;5.63;;;;;;;14.52;100.00;102167.19;5003031;28;20187;-72
2023/07/08 03:54:01;;;;;;;5.77;5.10;;;;;;;14.58;100.00;102176.78;5010667;28;20289;-71
2023/07/08 03:56:28;;;;;;;5.30;4.60;;;;;;;14.66;100.00;102172.69;4998993;28;20199;-72
2023/07/08 03:58:54;;;;;;;7.27;5.10;;;;;;;14.70;100.00;102177.06;4985781;28;20211;-72
2023/07/08 04:01:23;;;;;;;6.83;5.07;;;;;;;14.77;100.00;102163.47;4991006;28;20218;-71
2023/07/08 04:03:52;;;;;;;8.17;5.60;;;;;;;14.87;100.00;102171.47;5001353;28;20191;-72
2023/07/08 04:06:18;;;;;;;5.40;4.90;;;;;;;14.99;100.00;102163.16;5002912;28;20190;-71
2023/07/08 04:08:43;;;;;;;8.50;5.00;;;;;;;15.18;100.00;102158.44;5004583;28;20207;-72
2023/07/08 04:11:15;;;;;;;6.90;4.77;;;;;;;15.36;100.00;102160.56;5004125;28;20719;-72
2023/07/08 04:13:40;;;;;;;6.27;5.00;;;;;;;15.40;100.00;102162.38;5010093;28;20190;-71
2023/07/08 04:16:13;;;;;;;8.93;4.33;;;;;;;15.62;100.00;102159.41;5002399;28;20689;-72
2023/07/08 04:18:39;;;;;;;6.53;4.17;;;;;;;15.66;100.00;102161.22;5007758;28;20293;-72
2023/07/08 04:21:06;;;;;;;7.30;4.90;;;;;;;15.70;100.00;102158.69;4993762;28;20207;-72
2023/07/08 04:23:31;;;;;;;5.50;4.17;;;;;;;15.79;100.00;102158.88;4994721;28;20211;-72
2023/07/08 04:25:57;;;;;;;5.07;4.07;;;;;;;15.89;100.00;102157.34;5001934;28;20195;-72
2023/07/08 04:28:23;;;;;;;6.00;4.23;;;;;;;16.12;100.00;102148.31;5008358;28;20214;-71
2023/07/08 04:30:48;;;;;;;6.13;4.10;;;;;;;16.29;100.00;102141.69;5006300;28;20770;-72
2023/07/08 04:33:15;;;;;;;6.53;3.67;;;;;;;16.38;100.00;102142.72;5004242;28;20195;-72
2023/07/08 04:35:42;;;;;;;6.57;4.10;;;;;;;16.44;100.00;102145.44;5000300;28;20278;-72
2023/07/08 04:38:16;;;;;;;6.23;3.53;;;;;;;16.62;100.00;102145.75;5004876;28;20207;-72
2023/07/08 04:40:42;;;;;;;6.33;3.93;;;;;;;16.71;100.00;102145.88;5000818;28;20211;-72
2023/07/08 04:43:07;;;;;;;4.23;3.57;;;;;;;16.87;100.00;102141.81;5009972;28;20803;-72
2023/07/08 04:45:34;;;;;;;6.90;3.83;;;;;;;16.92;100.00;102130.69;5001967;28;20191;-72
2023/07/08 04:48:00;;;;;;;6.37;3.60;;;;;;;17.14;100.00;102105.97;5007334;28;20204;-72
2023/07/08 04:50:26;;;;;;;4.40;3.43;;;;;;;17.22;100.00;102109.53;4996315;28;20238;-72
2023/07/08 04:52:51;;;;;;;6.00;3.63;;;;;;;17.30;100.00;102107.88;4995996;28;20199;-72
2023/07/08 04:55:17;;;;;;;6.73;3.70;;;;;;;17.39;100.00;102123.53;4996320;28;20330;-72
2023/07/08 04:57:42;;;;;;;4.90;3.43;;;;;;;17.53;100.00;102107.34;5006964;28;20195;-71
2023/07/08 05:00:15;;;;;;;5.30;3.60;;;;;;;17.67;100.00;102091.94;5015099;28;20225;-71
2023/07/08 05:02:41;;;;;;;5.63;3.63;;;;;;;17.77;100.00;102096.41;5008161;28;20215;-72
2023/07/08 05:05:06;;;;;;;6.43;3.60;;;;;;;17.85;100.00;102082.66;5003736;28;20722;-72
2023/07/08 05:07:32;;;;;;;5.27;3.60;;;;;;;17.96;100.00;102082.75;5006747;28;20191;-72
2023/07/08 05:09:58;;;;;;;5.27;3.47;;;;;;;18.13;100.00;102082.03;4998298;28;20251;-72
2023/07/08 05:12:23;;;;;;;4.60;3.73;;;;;;;18.23;100.00;102083.00;5009666;28;20186;-72
2023/07/08 05:14:48;;;;;;;4.90;3.13;;;;;;;18.32;100.00;102068.38;4993933;28;20290;-72
2023/07/08 05:17:14;;;;;;;4.87;3.37;;;;;;;18.45;100.00;102059.84;5003231;28;20266;-72
2023/07/08 05:19:41;;;;;;;5.70;3.50;;;;;;;18.58;100.00;102040.91;5007686;28;20230;-71
2023/07/08 05:22:06;;;;;;;5.20;3.47;;;;;;;18.65;100.00;102044.41;5000637;28;20223;-72
2023/07/08 05:24:32;;;;;;;5.77;3.30;;;;;;;18.83;100.00;102013.38;4993376;28;20188;-72
2023/07/08 05:26:59;;;;;;;5.47;3.40;;;;;;;18.95;100.00;102023.78;5011858;28;20286;-71
2023/07/08 05:29:24;;;;;;;5.07;3.33;;;;;;;19.06;100.00;102016.91;5016700;28;20218;-72
2023/07/08 05:31:50;;;;;;;5.33;3.83;;;;;;;19.22;100.00;102014.41;5003221;28;20196;-71
2023/07/08 05:34:15;;;;;;;5.47;3.17;;;;;;;19.34;100.00;102003.19;5011144;28;20194;-71
2023/07/08 05:36:41;;;;;;;4.67;3.23;;;;;;;19.43;100.00;102019.66;5001000;28;20253;-72
2023/07/08 05:39:07;;;;;;;3.93;3.23;;;;;;;19.57;100.00;102022.28;5000603;28;20309;-72
2023/07/08 05:41:33;;;;;;;6.23;3.40;;;;;;;19.70;100.00;102034.41;5007364;28;20211;-72
2023/07/08 05:43:58;;;;;;;6.50;3.67;;;;;;;19.78;100.00;102024.91;5011674;28;20558;-72
2023/07/08 05:46:24;;;;;;;4.37;3.13;;;;;;;19.88;100.00;102005.84;5010882;28;20282;-72
2023/07/08 05:48:50;;;;;;;4.57;3.07;;;;;;;19.95;100.00;102011.03;5003479;28;20225;-71
2023/07/08 05:51:16;;;;;;;3.83;3.00;;;;;;;20.06;100.00;101998.03;4996412;28;20701;-72
2023/07/08 05:53:42;;;;;;;4.17;3.10;;;;;;;20.13;100.00;102010.22;4996523;28;20200;-72
2023/07/08 05:56:08;;;;;;;5.67;2.90;;;;;;;20.25;100.00;102011.06;5012480;28;20203;-72
2023/07/08 05:58:33;;;;;;;4.90;3.20;;;;;;;20.28;100.00;101985.03;5013288;28;20210;-72
2023/07/08 06:00:59;;;;;;;5.77;3.17;;;;;;;20.39;100.00;101991.09;5002646;28;20685;-72
2023/07/08 06:03:25;;;;;;;5.60;2.80;;;;;;;20.53;100.00;101994.50;5004239;28;20198;-71
2023/07/08 06:05:50;;;;;;;6.00;3.33;;;;;;;20.62;100.00;101994.50;4987939;28;20221;-72
2023/07/08 06:08:16;;;;;;;5.73;3.10;;;;;;;20.75;100.00;101993.59;5001010;28;20719;-72
2023/07/08 06:10:45;;;;;;;8.40;3.73;;;;;;;20.79;100.00;101999.63;5005901;28;20277;-71
2023/07/08 06:13:12;;;;;;;5.07;3.10;;;;;;;20.92;100.00;101981.38;5010274;28;20198;-73
2023/07/08 06:15:38;;;;;;;4.50;2.93;;;;;;;21.03;100.00;102000.44;4990524;28;20227;-73
2023/07/08 06:18:04;;;;;;;5.87;3.23;;;;;;;21.11;100.00;101987.38;4998197;28;20211;-72
2023/07/08 06:20:29;;;;;;;5.40;3.30;;;;;;;21.24;100.00;101989.88;5003290;28;20199;-75
2023/07/08 06:22:55;;;;;;;3.77;2.70;;;;;;;21.36;100.00;102008.06;4999501;28;20207;-74
2023/07/08 06:25:21;;;;;;;3.67;3.17;;;;;;;21.44;100.00;101990.66;4994824;28;20195;-72
2023/07/08 06:27:46;;;;;;;7.17;2.83;;;;;;;21.54;100.00;101988.81;5011788;28;20187;-73
2023/07/08 06:30:12;;;;;;;6.77;3.00;;;;;;;21.71;100.00;101987.88;5008437;28;20703;-72
2023/07/08 06:32:38;;;;;;;6.43;2.77;;;;;;;21.84;100.00;101991.25;5003056;28;20638;-73
2023/07/08 06:35:04;;;;;;;3.63;2.70;;;;;;;21.93;100.00;101999.00;4998978;28;20226;-73
2023/07/08 06:37:29;;;;;;;4.50;3.57;;;;;;;21.95;100.00;101977.25;5003887;28;20267;-74
2023/07/08 06:39:55;;;;;;;3.47;2.37;;;;;;;22.14;100.00;101989.22;5005311;28;20242;-73
2023/07/08 06:42:20;;;;;;;5.63;2.90;;;;;;;22.24;100.00;101979.56;5002920;28;20780;-73
2023/07/08 06:44:54;;;;;;;4.13;3.13;;;;;;;22.41;100.00;101974.19;5004105;28;20266;-73
2023/07/08 06:47:21;;;;;;;4.17;2.70;;;;;;;22.49;100.00;101972.34;5002741;28;20217;-73
2023/07/08 06:49:47;;;;;;;3.60;2.90;;;;;;;22.49;96.57;101961.91;5006182;28;20309;-73
2023/07/08 06:52:14;;;;;;;3.20;2.90;;;;;;;22.56;95.81;101966.19;5004512;28;20197;-73
2023/07/08 06:54:39;;;;;;;5.80;2.97;;;;;;;22.58;96.23;101961.81;4996923;28;20192;-73
2023/07/08 06:57:05;;;;;;;5.40;3.27;;;;;;;22.72;95.49;101955.56;5005382;28;20265;-73
2023/07/08 06:59:31;;;;;;;5.07;3.00;;;;;;;22.82;92.87;101946.69;5012832;28;20328;-73
2023/07/08 07:01:57;;;;;;;4.73;2.60;;;;;;;23.07;97.89;101970.78;5005737;28;20706;-73
2023/07/08 07:04:22;;;;;;;4.80;2.77;;;;;;;23.24;90.21;101942.69;5002688;28;20190;-73
2023/07/08 07:06:48;;;;;;;4.10;2.93;;;;;;;23.21;86.95;101935.72;4997679;28;20194;-73
2023/07/08 07:09:13;;;;;;;7.60;2.37;;;;;;;23.51;89.59;101937.88;4995120;28;20289;-73
2023/07/08 07:11:38;;;;;;;5.97;2.90;;;;;;;23.63;89.91;101940.31;5002891;28;20198;-73
2023/07/08 07:14:04;;;;;;;4.37;2.60;;;;;;;23.48;81.40;101966.69;5008355;28;20294;-74
2023/07/08 07:16:29;;;;;;;3.23;2.70;;;;;;;23.74;84.77;101940.97;5002878;28;20194;-73
2023/07/08 07:18:55;;;;;;;5.93;2.97;;;;;;;23.81;85.75;101939.13;4996167;28;20560;-74
2023/07/08 07:21:21;;;;;;;2.97;2.67;;;;;;;23.98;87.54;101940.56;5006044;28;20707;-73
2023/07/08 07:23:46;;;;;;;3.40;3.00;;;;;;;24.28;82.42;101931.28;4998236;28;20199;-73
2023/07/08 07:26:12;;;;;;;3.95;2.80;;;;;;;24.33;81.48;101932.94;5001485;28;20195;-74
2023/07/08 07:28:37;;;;;;;5.10;3.05;;;;;;;24.46;83.31;101923.94;5013028;28;20306;-74
2023/07/08 07:31:05;;;;;;;3.75;2.55;;;;;;;24.66;81.41;101920.94;5004219;28;20230;-74
2023/07/08 07:33:31;;;;;;;5.05;2.75;;;;;;;24.79;81.02;101925.03;5002304;28;20207;-73
2023/07/08 07:35:57;;;;;;;3.00;2.70;;;;;;;24.77;76.39;101916.34;4994722;28;20191;-73
2023/07/08 07:38:28;;;;;;;4.18;2.40;;;;;;;25.03;81.51;101930.59;4998289;28;20206;-74
2023/07/08 07:40:54;;;;;;;6.97;2.70;;;;;;;25.01;79.98;101932.38;4997332;28;20211;-74
2023/07/08 07:43:19;;;;;;;3.95;2.70;;;;;;;25.18;72.00;101903.16;5007027;28;20190;-73
2023/07/08 07:45:44;;;;;;;6.45;2.70;;;;;;;25.37;79.07;101935.97;5008844;28;20199;-74
2023/07/08 07:48:10;;;;;;;4.25;2.80;;;;;;;25.37;72.82;101905.31;5007546;28;20226;-74
2023/07/08 07:50:35;;;;;;;5.25;2.90;;;;;;;25.41;66.83;101893.00;4997650;28;20299;-73
2023/07/08 07:53:01;;;;;;;4.05;2.38;;;;;;;25.55;73.36;101932.91;4997207;28;20195;-74
2023/07/08 07:55:26;;;;;;;5.28;3.08;;;;;;;25.75;69.52;101905.25;4990904;28;20198;-73
2023/07/08 07:57:52;;;;;;;3.38;2.58;;;;;;;25.71;63.32;101884.34;4986233;28;20198;-74
2023/07/08 08:00:17;;;;;;;4.47;3.05;;;;;;;25.73;60.71;101879.91;4990140;28;20634;-73
2023/07/08 08:02:43;;;;;;;2.75;2.22;;;;;;;26.01;66.05;101905.44;4993198;28;20585;-74
2023/07/08 08:05:09;;;;;;;3.63;2.63;;;;;;;25.99;62.33;101896.75;4993107;28;20357;-73
2023/07/08 08:07:36;;;;;;;3.47;2.50;;;;;;;26.06;61.46;101893.03;4994442;28;20191;-74
2023/07/08 08:10:01;;;;;;;3.00;2.65;;;;;;;26.15;59.85;101889.31;5005227;28;20719;-73
2023/07/08 08:12:27;;;;;;;3.35;2.53;;;;;;;26.30;56.85;101871.31;5001185;28;20191;-73
2023/07/08 08:14:52;;;;;;;4.40;2.47;;;;;;;26.36;59.69;101888.69;5004138;28;20191;-74
2023/07/08 08:17:18;;;;;;;5.95;2.83;;;;;;;26.49;54.73;101867.28;5001140;28;20196;-73
2023/07/08 08:19:43;;;;;;;3.22;2.53;;;;;;;26.70;53.27;101864.03;4998580;28;20246;-73
2023/07/08 08:22:09;;;;;;;3.65;2.38;;;;;;;26.57;55.36;101888.13;4986681;28;20219;-74
2023/07/08 08:24:34;;;;;;;3.55;2.53;;;;;;;26.76;58.88;101923.47;4995641;28;20198;-73
2023/07/08 08:27:00;;;;;;;3.22;2.63;;;;;;;26.94;58.53;101915.88;5001159;28;20309;-74
2023/07/08 08:29:25;;;;;;;7.07;2.38;;;;;;;27.15;54.78;101888.03;5007626;28;20301;-74
2023/07/08 08:31:51;;;;;;;3.97;2.70;;;;;;;27.32;58.57;101917.34;5002311;28;20660;-74
2023/07/08 08:34:17;;;;;;;3.33;2.72;;;;;;;27.52;54.98;101886.81;5019276;28;21831;-74
2023/07/08 08:36:42;;;;;;;3.35;2.42;;;;;;;27.51;53.32;101881.59;5004120;28;20815;-74
2023/07/08 08:39:08;;;;;;;4.03;2.78;;;;;;;27.59;52.18;101885.69;4994456;28;20214;-75
2023/07/08 08:41:37;;;;;;;2.92;2.42;;;;;;;27.68;48.93;101866.94;4996214;28;20281;-72
2023/07/08 08:44:05;;;;;;;3.45;2.60;;;;;;;27.49;48.66;101876.38;5013802;28;20265;-74
2023/07/08 08:46:55;;;;;;;3.90;2.45;;;;;;;27.65;50.61;101903.03;5010594;28;20210;-75
2023/07/08 08:49:20;;;;;;;4.28;2.60;;;;;;;27.91;50.60;101900.41;5005899;28;20221;-75
2023/07/08 08:51:47;;;;;;;3.15;2.55;;;;;;;28.17;49.66;101887.16;4995057;28;20194;-75
2023/07/08 08:54:12;;;;;;;2.58;2.38;;;;;;;28.19;48.45;101886.19;5005770;28;20202;-75
2023/07/08 08:56:53;;;;;;;5.28;2.70;;;;;;;28.12;47.00;101878.56;5007973;28;20191;-74
2023/07/08 08:59:35;;;;;;;5.88;2.80;;;;;;;28.26;46.30;101882.44;5009778;28;20719;-74
2023/07/08 09:02:08;;;;;;;4.00;2.78;;;;;;;28.35;47.36;101895.25;5006655;28;20223;-74
2023/07/08 09:04:36;;;;;;;6.38;2.97;;;;;;;28.38;46.84;101889.03;5001657;28;20195;-74
2023/07/08 09:07:12;;;;;;;3.13;2.78;;;;;;;28.56;46.41;101889.19;5000138;28;20194;-74
2023/07/08 09:09:57;;;;;;;3.05;2.75;;;;;;;28.44;46.37;101892.31;5003694;28;20357;-74
2023/07/08 09:12:27;;;;;;;3.45;3.00;;;;;;;28.63;46.55;101889.84;5010633;28;20183;-75
2023/07/08 09:14:52;;;;;;;6.68;2.70;;;;;;;28.38;46.26;101889.03;5009717;28;20199;-75
2023/07/08 09:17:27;;;;;;;4.20;2.65;;;;;;;28.94;46.47;101896.53;5002826;28;20206;-75
2023/07/08 09:20:22;;;;;;;2.85;2.55;;;;;;;29.20;46.22;101893.72;5001058;28;20220;-74
2023/07/08 09:23:11;;;;;;;3.47;2.75;;;;;;;29.22;44.37;101877.81;5001647;28;20204;-74
2023/07/08 09:25:46;;;;;;;3.65;2.75;;;;;;;29.26;45.48;101890.84;5002255;28;20209;-75
2023/07/08 09:28:13;;;;;;;4.70;2.50;;;;;;;29.33;44.61;101872.97;5002816;28;20684;-74
2023/07/08 09:30:39;;;;;;;5.93;3.00;;;;;;;29.63;44.47;101879.63;4997493;28;20195;-74
2023/07/08 09:33:08;;;;;;;3.47;2.60;;;;;;;29.80;44.28;101870.03;4997591;28;20184;-75
2023/07/08 09:35:40;;;;;;;4.07;2.70;;;;;;;29.83;43.27;101869.03;5001754;28;20616;-74
2023/07/08 09:38:14;;;;;;;3.78;2.67;;;;;;;29.84;43.10;101868.16;5003693;28;20200;-74
2023/07/08 09:40:47;;;;;;;3.45;3.05;;;;;;;29.91;43.15;101873.09;4988550;28;20224;-74
2023/07/08 09:43:12;;;;;;;3.92;2.53;;;;;;;29.98;44.58;101892.19;4981217;28;20670;-74
2023/07/08 09:45:44;;;;;;;4.97;2.78;;;;;;;29.78;43.78;101869.25;4986229;28;20226;-74
2023/07/08 09:48:19;;;;;;;3.03;2.60;;;;;;;30.19;44.30;101878.03;4980732;28;20218;-74
2023/07/08 09:50:48;;;;;;;4.72;2.47;;;;;;;29.93;43.41;101878.31;4981217;28;20187;-74
2023/07/08 09:53:14;;;;;;;3.72;3.13;;;;;;;29.79;43.74;101883.34;4981660;28;20204;-74
2023/07/08 09:55:40;;;;;;;3.17;2.67;;;;;;;30.00;45.72;101898.25;4975199;28;20783;-75
2023/07/08 09:58:13;;;;;;;4.20;2.72;;;;;;;30.28;44.84;101888.19;4971384;28;20295;-75
2023/07/08 10:00:41;;;;;;;5.70;2.70;;;;;;;30.61;44.47;101885.78;4977763;28;20200;-75
2023/07/08 10:03:20;;;;;;;4.45;2.65;;;;;;;30.62;45.24;101903.38;4973357;28;20271;-75
2023/07/08 10:05:48;;;;;;;3.53;3.22;;;;;;;30.69;42.50;101859.84;4978659;28;20203;-74
2023/07/08 10:08:19;;;;;;;3.40;3.10;;;;;;;30.42;41.93;101864.59;4988284;28;20251;-75
2023/07/08 10:10:55;;;;;;;3.88;3.20;;;;;;;30.58;41.46;101860.34;4979958;28;20201;-75
2023/07/08 10:13:28;;;;;;;4.68;3.33;;;;;;;30.75;43.87;101892.16;4982135;28;20255;-76
2023/07/08 10:16:25;;;;;;;3.38;2.67;;;;;;;30.94;42.18;101873.63;4985661;28;20199;-75
2023/07/08 10:18:51;;;;;;;3.90;2.63;;;;;;;30.67;40.80;101846.72;4969949;28;20757;-75
2023/07/08 10:21:48;;;;;;;5.13;2.85;;;;;;;30.77;41.49;101855.03;4987768;28;20314;-75
2023/07/08 10:24:40;;;;;;;4.63;3.05;;;;;;;31.02;41.86;101864.38;4970746;28;20579;-75
2023/07/08 10:27:22;;;;;;;4.03;3.00;;;;;;;31.10;41.50;101875.47;4978434;28;20219;-75
2023/07/08 10:30:05;;;;;;;4.30;2.80;;;;;;;31.42;42.66;101888.00;4984451;28;20211;-75
2023/07/08 10:32:46;;;;;;;5.05;3.30;;;;;;;31.28;41.33;101860.47;4977963;28;20646;-75
2023/07/08 10:35:18;;;;;;;3.55;2.83;;;;;;;31.45;42.54;101868.44;4972153;28;20567;-75
2023/07/08 10:37:58;;;;;;;4.20;2.60;;;;;;;31.32;41.61;101860.25;4984894;28;20199;-75
2023/07/08 10:40:48;;;;;;;5.00;2.80;;;;;;;31.52;40.37;101848.63;4983470;28;20202;-75
2023/07/08 10:43:51;;;;;;;3.45;2.80;;;;;;;31.20;39.07;101842.28;4982532;28;20282;-75
2023/07/08 10:46:37;;;;;;;4.65;2.90;;;;;;;31.47;42.64;101885.97;4980657;28;20258;-75
2023/07/08 10:49:49;;;;;;;5.35;3.10;;;;;;;31.50;40.99;101863.75;4982176;28;20898;-75
2023/07/08 10:52:50;;;;;;;4.75;2.72;;;;;;;31.65;40.89;101865.63;4983437;28;20204;-75
2023/07/08 10:55:31;;;;;;;4.43;2.90;;;;;;;31.79;39.77;101847.25;4979425;28;20207;-75
2023/07/08 10:58:22;;;;;;;3.47;3.15;;;;;;;31.86;39.16;101830.94;4992688;28;20219;-76
2023/07/08 11:00:55;;;;;;;5.70;2.88;;;;;;;31.66;38.96;101830.22;4993997;28;20202;-76
2023/07/08 11:03:26;;;;;;;3.47;2.97;;;;;;;31.94;38.94;101836.69;4995604;28;20238;-75
2023/07/08 11:06:03;;;;;;;3.25;2.78;;;;;;;32.22;40.01;101855.47;4997496;28;20203;-75
2023/07/08 11:08:39;;;;;;;5.63;3.00;;;;;;;32.23;39.41;101846.59;5001674;28;20244;-75
2023/07/08 11:11:13;;;;;;;3.85;2.78;;;;;;;32.50;40.95;101858.38;4996837;28;20192;-75
2023/07/08 11:13:51;;;;;;;3.55;2.80;;;;;;;31.98;37.29;101826.78;4992332;28;20254;-75
2023/07/08 11:16:27;;;;;;;3.17;2.88;;;;;;;32.20;38.08;101837.94;4996460;28;20274;-75
2023/07/08 11:19:03;;;;;;;3.38;3.03;;;;;;;32.26;39.41;101849.06;4996429;28;20237;-75
2023/07/08 11:21:46;;;;;;;3.25;2.95;;;;;;;32.29;41.23;101875.47;4998315;28;20222;-75
2023/07/08 11:24:36;;;;;;;3.67;2.58;;;;;;;32.36;36.50;101820.28;4997897;28;20212;-75
2023/07/08 11:27:24;;;;;;;3.67;3.10;;;;;;;32.30;36.48;101812.66;4999617;28;20709;-75
2023/07/08 11:30:06;;;;;;;3.63;2.60;;;;;;;32.48;36.96;101824.91;5003949;28;20700;-75